createdAt,value
2022-11-05T00:05:12.568Z,4.95
2022-11-05T00:10:20.253Z,6.82
2022-11-05T00:15:40.473Z,5.65
2022-11-05T00:20:42.034Z,5.63
2022-11-05T00:25:43.581Z,6.05
2022-11-05T00:30:45.181Z,6.68
2022-11-05T00:35:46.808Z,7.90
2022-11-05T00:40:48.378Z,9.35
2022-11-05T00:45:49.955Z,7.32
2022-11-05T00:50:51.859Z,8.98
2022-11-05T00:55:53.438Z,9.63
2022-11-05T01:00:57.621Z,8.30
2022-11-05T01:06:07.509Z,10.70
2022-11-05T01:11:11.939Z,11.82
2022-11-05T01:16:13.697Z,11.15
2022-11-05T01:21:15.910Z,12.45
2022-11-05T01:26:17.777Z,16.98
2022-11-05T01:31:20.111Z,11.65
2022-11-05T01:36:21.771Z,11.73
2022-11-05T01:41:23.376Z,12.35
2022-11-05T01:46:36.574Z,13.70
2022-11-05T01:51:39.630Z,12.40
2022-11-05T01:56:49.192Z,15.30
2022-11-05T02:02:07.460Z,12.85
2022-11-05T02:07:10.520Z,14.52
2022-11-05T02:12:13.466Z,18.35
2022-11-05T02:17:26.296Z,20.05
2022-11-05T02:23:00.295Z,21.05
2022-11-05T02:28:01.828Z,19.92
2022-11-05T02:33:26.649Z,25.98
2022-11-05T02:38:51.150Z,22.58
2022-11-05T02:44:20.146Z,26.40
2022-11-05T02:49:34.433Z,24.20
2022-11-05T02:54:41.847Z,26.38
2022-11-05T02:59:43.483Z,26.83
2022-11-05T03:04:45.125Z,26.02
2022-11-05T03:10:04.838Z,25.08
2022-11-05T03:15:20.972Z,25.80
2022-11-05T03:20:44.447Z,24.52
2022-11-05T03:25:53.656Z,27.27
2022-11-05T03:30:58.170Z,27.17
2022-11-05T03:36:05.941Z,25.70
2022-11-05T03:41:11.879Z,27.73
2022-11-05T03:46:35.020Z,24.60
2022-11-05T03:52:15.072Z,26.73
2022-11-05T04:02:27.104Z,23.27
2022-11-05T04:07:47.155Z,23.95
2022-11-05T04:18:09.224Z,24.70
2022-11-05T04:23:29.539Z,24.25
2022-11-05T04:28:51.067Z,24.40
2022-11-05T04:33:52.662Z,25.40
2022-11-05T04:38:54.213Z,24.83
2022-11-05T04:43:55.788Z,24.63
2022-11-05T04:48:57.344Z,26.33
2022-11-05T04:53:58.943Z,26.65
2022-11-05T04:59:02.873Z,23.40
2022-11-05T05:04:04.611Z,24.98
2022-11-05T05:09:06.162Z,23.08
2022-11-05T05:14:08.421Z,29.00
2022-11-05T05:19:09.995Z,25.75
2022-11-05T05:24:14.182Z,20.98
2022-11-05T05:29:17.219Z,23.38
2022-11-05T05:34:18.819Z,22.33
2022-11-05T05:39:20.378Z,21.35
2022-11-05T05:44:21.996Z,14.85
2022-11-05T05:49:25.937Z,13.65
2022-11-05T05:54:32.152Z,11.80
2022-11-05T05:59:35.078Z,11.40
2022-11-05T06:04:36.633Z,13.05
2022-11-05T06:09:38.207Z,9.85
2022-11-05T06:14:39.845Z,14.35
2022-11-05T06:19:41.412Z,33.95
2022-11-05T06:24:42.971Z,38.63
2022-11-05T06:29:44.555Z,37.15
2022-11-05T06:34:46.113Z,27.52
2022-11-05T06:39:47.849Z,21.08
2022-11-05T06:44:49.413Z,12.15
2022-11-05T06:49:50.987Z,8.93
2022-11-05T06:54:52.733Z,9.20
2022-11-05T07:00:01.319Z,9.32
2022-11-05T07:05:05.201Z,12.00
2022-11-05T07:10:09.377Z,9.95
2022-11-05T07:15:12.275Z,14.30
2022-11-05T07:20:13.857Z,13.25
2022-11-05T07:25:15.435Z,11.63
2022-11-05T07:30:16.992Z,11.10
2022-11-05T07:35:18.602Z,11.65
2022-11-05T07:40:21.678Z,11.68
2022-11-05T07:45:24.514Z,9.85
2022-11-05T07:50:28.679Z,12.00
2022-11-05T07:55:31.440Z,11.43
2022-11-05T08:00:33.988Z,8.68
2022-11-05T08:05:38.250Z,7.50
2022-11-05T08:10:40.664Z,6.85
2022-11-05T08:15:43.251Z,6.80
2022-11-05T08:20:46.924Z,5.75
2022-11-05T08:25:48.655Z,5.57
2022-11-05T08:30:55.704Z,5.88
2022-11-05T08:36:01.288Z,6.95
2022-11-05T08:41:02.961Z,6.45
2022-11-05T08:46:04.570Z,6.55
2022-11-05T08:51:06.286Z,4.55
2022-11-05T08:56:08.243Z,5.13
2022-11-05T09:01:09.960Z,8.15
2022-11-05T09:06:11.576Z,8.68
2022-11-05T09:11:13.187Z,6.05
2022-11-05T09:16:20.378Z,4.53
2022-11-05T09:21:21.941Z,7.03
2022-11-05T09:26:23.646Z,5.80
2022-11-05T09:31:25.194Z,5.95
2022-11-05T09:36:26.789Z,5.20
2022-11-05T09:41:36.835Z,4.53
2022-11-05T09:46:53.148Z,5.40
2022-11-05T09:51:57.508Z,5.78
2022-11-05T09:57:01.520Z,5.10
2022-11-05T10:02:30.245Z,4.97
2022-11-05T10:07:46.033Z,5.68
2022-11-05T10:12:52.674Z,4.45
2022-11-05T10:18:01.414Z,6.72
2022-11-05T10:23:11.916Z,6.75
2022-11-05T10:28:19.503Z,5.15
2022-11-05T10:33:32.497Z,7.03
2022-11-05T10:38:34.259Z,6.00
2022-11-05T10:43:47.907Z,7.28
2022-11-05T10:49:02.870Z,5.40
2022-11-05T10:54:12.195Z,6.03
2022-11-05T10:59:28.550Z,6.10
2022-11-05T11:04:36.541Z,5.55
2022-11-05T11:09:39.451Z,8.20
2022-11-05T11:14:41.097Z,6.50
2022-11-05T11:19:42.687Z,7.10
2022-11-05T11:24:48.045Z,5.82
2022-11-05T11:30:01.489Z,6.63
2022-11-05T11:35:05.348Z,6.88
2022-11-05T11:40:28.939Z,7.03
2022-11-05T11:45:38.199Z,6.25
2022-11-05T11:50:48.112Z,7.13
2022-11-05T12:01:32.803Z,6.47
2022-11-05T12:06:43.432Z,8.32
2022-11-05T12:12:10.058Z,8.18
2022-11-05T12:17:49.084Z,7.90
2022-11-05T12:23:18.460Z,11.00
2022-11-05T12:28:36.225Z,9.52
2022-11-05T12:33:47.202Z,9.02
2022-11-05T12:39:10.683Z,12.10
2022-11-05T12:44:41.500Z,13.35
2022-11-05T12:50:02.885Z,12.60
2022-11-05T12:55:11.068Z,11.75
2022-11-05T13:00:26.971Z,9.40
2022-11-05T13:05:42.018Z,7.90
2022-11-05T13:10:58.256Z,8.75
2022-11-05T13:16:05.859Z,9.60
2022-11-05T13:21:08.878Z,8.25
2022-11-05T13:26:37.638Z,12.50
2022-11-05T13:31:50.098Z,5.50
2022-11-05T13:37:22.074Z,5.40
2022-11-05T13:42:56.468Z,6.72
2022-11-05T13:48:31.792Z,7.47
2022-11-05T13:53:58.358Z,6.78
2022-11-05T13:59:12.093Z,4.05
2022-11-05T14:04:35.262Z,6.25
2022-11-05T14:09:38.123Z,5.78
2022-11-05T14:14:46.556Z,8.50
2022-11-05T14:20:05.626Z,5.10
2022-11-05T14:25:19.331Z,4.83
2022-11-05T14:30:41.067Z,4.32
2022-11-05T14:35:43.313Z,4.57
2022-11-05T14:40:46.335Z,5.20
2022-11-05T14:45:58.778Z,6.28
2022-11-05T14:51:00.486Z,4.57
2022-11-05T14:56:04.250Z,4.78
2022-11-05T15:01:30.097Z,5.55
2022-11-05T15:06:35.202Z,6.18
2022-11-05T15:11:45.575Z,8.55
2022-11-05T15:16:55.944Z,7.07
2022-11-05T15:22:00.940Z,5.82
2022-11-05T15:27:19.974Z,6.25
2022-11-05T15:32:26.388Z,7.27
2022-11-05T15:37:27.963Z,7.07
2022-11-05T15:42:29.865Z,9.30
2022-11-05T15:47:35.018Z,6.90
2022-11-05T15:52:48.257Z,9.32
2022-11-05T15:57:58.267Z,10.10
2022-11-05T16:08:05.242Z,7.47
2022-11-05T16:13:32.330Z,8.48
2022-11-05T16:18:37.704Z,10.57
2022-11-05T16:23:53.442Z,8.30
2022-11-05T16:28:56.828Z,7.18
2022-11-05T16:33:59.363Z,15.73
2022-11-05T16:39:00.965Z,9.32
2022-11-05T16:44:03.154Z,12.00
2022-11-05T16:49:04.975Z,8.75
2022-11-05T16:54:06.729Z,6.72
2022-11-05T16:59:12.603Z,11.32
2022-11-05T17:04:14.230Z,8.70
2022-11-05T17:09:16.403Z,10.10
2022-11-05T17:14:17.987Z,10.60
2022-11-05T17:19:19.756Z,11.45
2022-11-05T17:24:21.525Z,12.45
2022-11-05T17:29:23.101Z,11.98
2022-11-05T17:34:24.710Z,12.90
2022-11-05T17:39:31.429Z,21.67
2022-11-05T17:44:33.488Z,18.17
2022-11-05T17:49:35.046Z,16.73
2022-11-05T17:54:36.615Z,18.42
2022-11-05T17:59:38.242Z,19.15
2022-11-05T18:04:40.168Z,16.25
2022-11-05T18:09:42.188Z,19.67
2022-11-05T18:14:43.814Z,18.83
2022-11-05T18:19:45.407Z,22.45
2022-11-05T18:24:46.998Z,17.80
2022-11-05T18:29:48.554Z,19.92
2022-11-05T18:34:50.152Z,15.55
2022-11-05T18:39:52.926Z,18.98
2022-11-05T18:44:54.611Z,15.52
2022-11-05T18:49:56.276Z,17.60
2022-11-05T18:54:58.698Z,15.40
2022-11-05T19:00:00.886Z,12.90
2022-11-05T19:10:24.371Z,19.63
2022-11-05T19:15:26.048Z,22.83
2022-11-05T19:20:28.138Z,22.60
2022-11-05T19:25:29.745Z,21.50
2022-11-05T19:30:31.350Z,17.85
2022-11-05T19:35:35.705Z,20.00
2022-11-05T19:40:41.777Z,17.10
2022-11-05T19:45:44.970Z,20.42
2022-11-05T19:50:47.048Z,19.30
2022-11-05T19:55:48.640Z,19.35
2022-11-05T20:00:50.192Z,18.42
2022-11-05T20:05:51.809Z,17.42
2022-11-05T20:10:55.151Z,22.02
2022-11-05T20:15:57.160Z,26.67
2022-11-05T20:21:17.190Z,24.55
2022-11-05T20:26:18.881Z,22.90
2022-11-05T20:31:20.767Z,25.30
2022-11-05T20:36:24.462Z,23.77
2022-11-05T20:41:26.713Z,26.08
2022-11-05T20:46:28.489Z,30.13
2022-11-05T20:51:30.120Z,30.52
2022-11-05T20:56:34.684Z,28.20
2022-11-05T21:01:36.493Z,23.88
2022-11-05T21:06:38.102Z,23.38
2022-11-05T21:11:58.410Z,23.58
2022-11-05T21:17:00.041Z,24.60
2022-11-05T21:22:02.775Z,24.05
2022-11-05T21:27:04.341Z,26.90
2022-11-05T21:32:08.335Z,18.58
2022-11-05T21:37:09.905Z,20.30
2022-11-05T21:42:11.469Z,19.35
2022-11-05T21:47:13.858Z,26.40
2022-11-05T21:52:34.165Z,25.38
2022-11-05T21:57:54.466Z,22.10
2022-11-05T22:02:56.116Z,17.70
2022-11-05T22:08:03.548Z,19.38
2022-11-05T22:13:05.214Z,18.42
2022-11-05T22:18:06.862Z,17.98
2022-11-05T22:23:11.217Z,16.52
2022-11-05T22:28:13.403Z,20.27
2022-11-05T22:33:15.167Z,22.65
2022-11-05T22:38:16.800Z,16.15
2022-11-05T22:43:18.388Z,15.85
2022-11-05T22:48:19.954Z,16.60
2022-11-05T22:53:21.521Z,24.13
2022-11-05T22:58:23.063Z,28.23
2022-11-05T23:03:25.892Z,19.52
2022-11-05T23:08:46.578Z,23.52
2022-11-05T23:13:48.196Z,34.00
2022-11-05T23:19:08.344Z,28.90
2022-11-05T23:24:12.861Z,22.65
2022-11-05T23:29:14.426Z,29.55
2022-11-05T23:34:15.993Z,24.90
2022-11-05T23:39:17.546Z,23.13
2022-11-05T23:44:37.595Z,20.80
2022-11-05T23:49:39.163Z,23.73
2022-11-05T23:54:40.779Z,21.80
2022-11-05T23:59:42.414Z,22.65
